createdAt,value
2018-09-18T00:01:26.803Z,3.17
2018-09-18T00:03:52.899Z,3.47
2018-09-18T00:06:18.989Z,4.00
2018-09-18T00:08:45.114Z,3.87
2018-09-18T00:11:11.601Z,3.77
2018-09-18T00:13:37.765Z,3.00
2018-09-18T00:16:03.858Z,3.30
2018-09-18T00:18:29.983Z,3.83
2018-09-18T00:20:56.861Z,3.40
2018-09-18T00:23:22.951Z,3.70
2018-09-18T00:25:49.069Z,3.83
2018-09-18T00:28:15.170Z,3.23
2018-09-18T00:30:41.291Z,3.57
2018-09-18T00:33:07.393Z,3.20
2018-09-18T00:35:33.453Z,3.80
2018-09-18T00:37:59.534Z,3.60
2018-09-18T00:40:25.714Z,3.80
2018-09-18T00:42:51.893Z,3.90
2018-09-18T00:45:17.996Z,4.33
2018-09-18T00:47:44.088Z,3.80
2018-09-18T00:50:10.222Z,4.13
2018-09-18T00:52:36.284Z,4.13
2018-09-18T00:55:02.421Z,3.67
2018-09-18T00:57:28.493Z,4.60
2018-09-18T00:59:54.623Z,4.73
2018-09-18T01:02:20.743Z,5.20
2018-09-18T01:04:46.882Z,4.80
2018-09-18T01:07:12.977Z,5.10
2018-09-18T01:09:39.729Z,5.10
2018-09-18T01:12:05.797Z,4.37
2018-09-18T01:14:31.895Z,4.10
2018-09-18T01:16:57.974Z,4.20
2018-09-18T01:19:24.282Z,5.77
2018-09-18T01:21:50.398Z,5.10
2018-09-18T01:24:16.522Z,5.07
2018-09-18T01:26:42.605Z,4.97
2018-09-18T01:29:08.773Z,5.80
2018-09-18T01:31:34.874Z,4.80
2018-09-18T01:34:00.974Z,5.17
2018-09-18T01:36:27.138Z,5.60
2018-09-18T01:38:53.212Z,5.10
2018-09-18T01:41:19.316Z,5.83
2018-09-18T01:43:45.461Z,4.70
2018-09-18T01:46:11.565Z,5.33
2018-09-18T01:48:37.682Z,5.40
2018-09-18T01:51:04.020Z,6.23
2018-09-18T01:53:30.087Z,5.63
2018-09-18T01:55:56.185Z,6.13
2018-09-18T01:58:22.299Z,5.47
2018-09-18T02:00:48.402Z,5.23
2018-09-18T02:03:14.488Z,5.40
2018-09-18T02:05:40.606Z,5.50
2018-09-18T02:08:06.730Z,5.63
2018-09-18T02:10:32.918Z,6.00
2018-09-18T02:12:59.038Z,6.00
2018-09-18T02:15:25.146Z,5.43
2018-09-18T02:17:51.257Z,5.97
2018-09-18T02:20:17.342Z,5.27
2018-09-18T02:22:43.426Z,6.57
2018-09-18T02:25:09.530Z,5.83
2018-09-18T02:27:35.615Z,5.87
2018-09-18T02:30:01.798Z,5.53
2018-09-18T02:32:27.859Z,6.20
2018-09-18T02:34:53.920Z,5.57
2018-09-18T02:37:20.564Z,6.37
2018-09-18T02:39:46.675Z,5.50
2018-09-18T02:42:12.768Z,6.07
2018-09-18T02:44:38.894Z,5.80
2018-09-18T02:47:04.983Z,5.40
2018-09-18T02:49:31.083Z,5.70
2018-09-18T02:51:57.214Z,5.60
2018-09-18T02:54:23.318Z,5.20
2018-09-18T02:56:49.448Z,6.00
2018-09-18T02:59:15.588Z,6.57
2018-09-18T03:01:41.701Z,5.77
2018-09-18T03:04:07.809Z,6.60
2018-09-18T03:06:33.882Z,6.10
2018-09-18T03:08:59.963Z,7.13
2018-09-18T03:11:26.217Z,6.23
2018-09-18T03:13:52.201Z,6.00
2018-09-18T03:16:18.324Z,6.57
2018-09-18T03:18:44.410Z,7.63
2018-09-18T03:21:10.486Z,7.60
2018-09-18T03:23:37.967Z,7.07
2018-09-18T03:26:04.079Z,5.83
2018-09-18T03:28:30.157Z,5.57
2018-09-18T03:30:56.254Z,5.07
2018-09-18T03:33:22.333Z,5.87
2018-09-18T03:35:48.558Z,4.70
2018-09-18T03:38:14.505Z,6.10
2018-09-18T03:40:40.575Z,6.33
2018-09-18T03:43:06.702Z,6.20
2018-09-18T03:45:32.788Z,6.07
2018-09-18T03:47:58.881Z,6.17
2018-09-18T03:50:25.059Z,6.40
2018-09-18T03:52:51.165Z,6.27
2018-09-18T03:55:17.398Z,6.70
2018-09-18T03:57:43.540Z,6.60
2018-09-18T04:00:09.614Z,6.07
2018-09-18T04:02:35.844Z,5.13
2018-09-18T04:05:01.952Z,5.20
2018-09-18T04:07:28.062Z,6.10
2018-09-18T04:09:54.142Z,6.37
2018-09-18T04:12:20.410Z,5.13
2018-09-18T04:14:46.559Z,6.10
2018-09-18T04:17:13.111Z,5.50
2018-09-18T04:19:43.013Z,6.20
2018-09-18T04:22:09.347Z,8.33
2018-09-18T04:24:35.432Z,11.33
2018-09-18T04:27:01.536Z,11.23
2018-09-18T04:29:27.641Z,10.97
2018-09-18T04:31:53.779Z,8.10
2018-09-18T04:34:19.876Z,8.57
2018-09-18T04:36:45.974Z,8.30
2018-09-18T04:39:12.106Z,7.67
2018-09-18T04:41:38.237Z,6.30
2018-09-18T04:44:04.419Z,6.90
2018-09-18T04:46:30.512Z,5.53
2018-09-18T04:48:56.614Z,5.67
2018-09-18T04:51:22.707Z,5.67
2018-09-18T04:53:48.785Z,5.87
2018-09-18T04:56:14.900Z,6.07
2018-09-18T04:58:40.994Z,6.20
2018-09-18T05:01:07.112Z,5.07
2018-09-18T05:03:33.190Z,5.63
2018-09-18T05:05:59.287Z,6.00
2018-09-18T05:08:25.386Z,5.63
2018-09-18T05:10:51.592Z,5.20
2018-09-18T05:13:17.774Z,5.07
2018-09-18T05:15:43.835Z,4.40
2018-09-18T05:18:09.940Z,5.13
2018-09-18T05:20:36.758Z,5.40
2018-09-18T05:23:03.590Z,4.93
2018-09-18T05:25:29.704Z,4.87
2018-09-18T05:27:55.883Z,5.43
2018-09-18T05:30:21.994Z,5.37
2018-09-18T05:32:48.096Z,5.30
2018-09-18T05:35:14.198Z,4.73
2018-09-18T05:37:40.862Z,5.00
2018-09-18T05:40:06.956Z,5.20
2018-09-18T05:42:33.530Z,4.60
2018-09-18T05:44:59.658Z,4.20
2018-09-18T05:47:25.740Z,4.53
2018-09-18T05:49:51.860Z,4.80
2018-09-18T05:52:17.944Z,5.20
2018-09-18T05:54:44.014Z,5.17
2018-09-18T05:57:10.106Z,5.30
2018-09-18T05:59:36.248Z,5.77
2018-09-18T06:02:02.430Z,5.70
2018-09-18T06:04:28.472Z,4.83
2018-09-18T06:06:54.588Z,5.53
2018-09-18T06:09:20.690Z,5.20
2018-09-18T06:11:46.796Z,5.00
2018-09-18T06:14:12.898Z,5.30
2018-09-18T06:16:39.012Z,4.93
2018-09-18T06:19:05.176Z,4.97
2018-09-18T06:21:31.268Z,5.13
2018-09-18T06:23:57.386Z,4.80
2018-09-18T06:26:23.764Z,5.47
2018-09-18T06:28:49.720Z,5.23
2018-09-18T06:31:15.829Z,5.80
2018-09-18T06:33:41.899Z,5.40
2018-09-18T06:36:08.030Z,4.70
2018-09-18T06:38:34.110Z,4.80
2018-09-18T06:41:00.380Z,5.27
2018-09-18T06:43:26.486Z,4.60
2018-09-18T06:45:52.758Z,4.53
2018-09-18T06:48:18.849Z,5.87
2018-09-18T06:50:44.959Z,5.20
2018-09-18T06:53:11.071Z,4.70
2018-09-18T06:55:37.138Z,5.03
2018-09-18T06:58:03.239Z,5.30
2018-09-18T07:00:29.354Z,5.67
2018-09-18T07:02:55.518Z,5.20
2018-09-18T07:05:21.690Z,6.50
2018-09-18T07:07:47.790Z,5.77
2018-09-18T07:10:13.866Z,4.87
2018-09-18T07:12:39.974Z,6.10
2018-09-18T07:15:06.091Z,5.80
2018-09-18T07:17:32.731Z,5.73
2018-09-18T07:19:58.812Z,5.37
2018-09-18T07:22:25.784Z,6.63
2018-09-18T07:24:51.943Z,7.40
2018-09-18T07:27:18.086Z,5.27
2018-09-18T07:29:44.193Z,5.50
2018-09-18T07:32:10.323Z,5.77
2018-09-18T07:34:36.416Z,5.63
2018-09-18T07:37:02.548Z,5.73
2018-09-18T07:39:28.650Z,5.40
2018-09-18T07:41:54.742Z,4.80
2018-09-18T07:44:20.839Z,5.37
2018-09-18T07:46:47.687Z,5.17
2018-09-18T07:49:13.768Z,5.70
2018-09-18T07:51:40.228Z,5.90
2018-09-18T07:54:06.323Z,5.00
2018-09-18T07:56:32.397Z,5.47
2018-09-18T07:58:58.549Z,5.60
2018-09-18T08:01:24.644Z,5.83
2018-09-18T08:03:50.762Z,4.97
2018-09-18T08:06:17.661Z,5.93
2018-09-18T08:08:43.766Z,5.27
2018-09-18T08:11:10.098Z,5.60
2018-09-18T08:13:36.213Z,5.70
2018-09-18T08:16:02.328Z,5.20
2018-09-18T08:18:28.431Z,5.27
2018-09-18T08:20:54.562Z,4.87
2018-09-18T08:23:20.722Z,4.70
2018-09-18T08:25:46.889Z,5.20
2018-09-18T08:28:12.982Z,4.77
2018-09-18T08:30:39.105Z,4.90
2018-09-18T08:33:05.309Z,5.40
2018-09-18T08:35:31.385Z,4.53
2018-09-18T08:37:57.512Z,4.70
2018-09-18T08:40:23.644Z,4.50
2018-09-18T08:42:49.748Z,4.93
2018-09-18T08:45:15.860Z,5.00
2018-09-18T08:47:41.977Z,4.97
2018-09-18T08:50:08.080Z,4.70
2018-09-18T08:52:34.269Z,4.40
2018-09-18T08:55:00.646Z,4.57
2018-09-18T08:57:26.833Z,4.40
2018-09-18T08:59:53.053Z,4.50
2018-09-18T09:02:19.185Z,4.27
2018-09-18T09:04:45.261Z,4.00
2018-09-18T09:07:11.353Z,3.90
2018-09-18T09:09:38.265Z,4.10
2018-09-18T09:12:05.524Z,3.83
2018-09-18T09:14:39.952Z,4.40
2018-09-18T09:17:07.017Z,3.70
2018-09-18T09:19:36.750Z,4.20
2018-09-18T09:22:02.948Z,4.60
2018-09-18T09:24:28.941Z,3.93
2018-09-18T09:26:55.074Z,3.80
2018-09-18T09:29:21.160Z,4.30
2018-09-18T09:31:47.242Z,4.10
2018-09-18T09:34:13.368Z,4.40
2018-09-18T09:36:45.933Z,4.27
2018-09-18T09:39:12.021Z,3.90
2018-09-18T09:41:38.131Z,3.80
2018-09-18T09:44:04.230Z,3.90
2018-09-18T09:46:30.342Z,3.87
2018-09-18T09:48:56.442Z,3.50
2018-09-18T09:51:22.880Z,4.30
2018-09-18T09:53:48.918Z,3.50
2018-09-18T09:56:15.066Z,3.37
2018-09-18T09:58:41.147Z,3.50
2018-09-18T10:01:07.242Z,4.00
2018-09-18T10:03:33.379Z,3.83
2018-09-18T10:05:59.492Z,3.70
2018-09-18T10:08:25.554Z,3.20
2018-09-18T10:10:51.788Z,3.30
2018-09-18T10:13:18.668Z,3.07
2018-09-18T10:15:46.923Z,2.97
2018-09-18T10:18:13.090Z,3.87
2018-09-18T10:20:39.167Z,3.60
2018-09-18T10:23:05.271Z,3.30
2018-09-18T10:25:31.359Z,3.60
2018-09-18T10:27:57.497Z,3.17
2018-09-18T10:30:23.585Z,3.80
2018-09-18T10:32:49.785Z,3.90
2018-09-18T10:35:15.782Z,3.47
2018-09-18T10:37:41.838Z,3.60
2018-09-18T10:40:08.000Z,4.17
2018-09-18T10:42:34.137Z,3.27
2018-09-18T10:45:01.241Z,3.60
2018-09-18T10:47:27.318Z,3.23
2018-09-18T10:49:53.435Z,3.70
2018-09-18T10:52:19.552Z,3.80
2018-09-18T10:54:45.624Z,3.93
2018-09-18T10:57:11.675Z,3.80
2018-09-18T10:59:37.747Z,3.70
2018-09-18T11:02:03.875Z,3.73
2018-09-18T11:04:30.081Z,3.97
2018-09-18T11:06:57.204Z,3.73
2018-09-18T11:09:23.278Z,3.30
2018-09-18T11:11:49.592Z,3.30
2018-09-18T11:14:15.627Z,3.50
2018-09-18T11:16:41.664Z,3.50
2018-09-18T11:19:07.774Z,3.77
2018-09-18T11:21:33.993Z,3.30
2018-09-18T11:24:00.262Z,3.47
2018-09-18T11:26:26.519Z,3.30
2018-09-18T11:28:53.599Z,3.27
2018-09-18T11:31:19.742Z,3.83
2018-09-18T11:33:45.811Z,3.00
2018-09-18T11:36:11.917Z,3.40
2018-09-18T11:38:38.681Z,3.40
2018-09-18T11:41:04.764Z,3.30
2018-09-18T11:43:30.825Z,3.27
2018-09-18T11:45:57.124Z,3.00
2018-09-18T11:48:23.975Z,3.33
2018-09-18T11:50:50.055Z,3.03
2018-09-18T11:53:16.117Z,3.70
2018-09-18T11:55:42.213Z,3.30
2018-09-18T11:58:08.317Z,3.50
2018-09-18T12:00:34.413Z,2.90
2018-09-18T12:03:00.547Z,3.03
2018-09-18T12:05:26.605Z,2.73
2018-09-18T12:07:52.675Z,3.00
2018-09-18T12:10:18.759Z,3.20
2018-09-18T12:12:44.821Z,3.00
2018-09-18T12:15:11.617Z,2.90
2018-09-18T12:17:37.659Z,3.13
2018-09-18T12:20:03.763Z,3.20
2018-09-18T12:22:30.119Z,2.83
2018-09-18T12:24:56.153Z,2.70
2018-09-18T12:27:22.235Z,2.80
2018-09-18T12:29:48.307Z,2.70
2018-09-18T12:32:14.388Z,2.40
2018-09-18T12:34:40.505Z,2.73
2018-09-18T12:37:06.594Z,2.83
2018-09-18T12:39:32.682Z,2.60
2018-09-18T12:41:58.905Z,2.63
2018-09-18T12:44:24.887Z,2.90
2018-09-18T12:46:51.013Z,2.80
2018-09-18T12:49:17.200Z,2.87
2018-09-18T12:51:43.242Z,2.60
2018-09-18T12:54:10.144Z,2.90
2018-09-18T12:56:36.262Z,2.60
2018-09-18T12:59:02.440Z,2.53
2018-09-18T13:01:28.649Z,2.40
2018-09-18T13:03:54.754Z,2.53
2018-09-18T13:06:21.163Z,2.33
2018-09-18T13:08:47.104Z,2.57
2018-09-18T13:11:13.192Z,2.40
2018-09-18T13:13:39.357Z,2.70
2018-09-18T13:16:05.454Z,2.43
2018-09-18T13:18:31.756Z,2.80
2018-09-18T13:20:57.906Z,2.60
2018-09-18T13:23:24.004Z,2.60
2018-09-18T13:25:51.074Z,2.80
2018-09-18T13:28:17.168Z,2.50
2018-09-18T13:30:43.273Z,2.80
2018-09-18T13:33:09.351Z,2.50
2018-09-18T13:35:35.475Z,2.60
2018-09-18T13:38:01.552Z,2.50
2018-09-18T13:40:27.716Z,2.80
2018-09-18T13:42:53.860Z,2.67
2018-09-18T13:45:20.043Z,2.60
2018-09-18T13:47:46.122Z,2.20
2018-09-18T13:50:13.801Z,2.30
2018-09-18T13:52:40.663Z,2.83
2018-09-18T13:55:06.780Z,2.00
2018-09-18T13:57:32.931Z,2.47
2018-09-18T13:59:59.097Z,2.70
2018-09-18T14:02:25.213Z,2.70
2018-09-18T14:04:51.241Z,2.70
2018-09-18T14:07:17.379Z,2.73
2018-09-18T14:09:43.496Z,2.57
2018-09-18T14:12:09.634Z,2.70
2018-09-18T14:14:35.721Z,2.57
2018-09-18T14:17:01.812Z,2.33
2018-09-18T14:19:27.917Z,2.43
2018-09-18T14:21:54.018Z,2.40
2018-09-18T14:24:20.117Z,2.47
2018-09-18T14:26:46.323Z,2.73
2018-09-18T14:29:12.635Z,2.77
2018-09-18T14:31:38.735Z,2.17
2018-09-18T14:34:04.878Z,2.50
2018-09-18T14:36:30.995Z,2.67
2018-09-18T14:38:57.340Z,2.30
2018-09-18T14:41:23.442Z,2.57
2018-09-18T14:43:50.537Z,2.43
2018-09-18T14:46:16.617Z,2.60
2018-09-18T14:48:42.702Z,2.47
2018-09-18T14:51:08.862Z,2.30
2018-09-18T14:53:34.961Z,2.50
2018-09-18T14:56:01.115Z,2.27
2018-09-18T14:58:27.227Z,2.67
2018-09-18T15:00:53.343Z,2.77
2018-09-18T15:03:19.440Z,2.97
2018-09-18T15:05:45.692Z,2.33
2018-09-18T15:08:12.118Z,2.50
2018-09-18T15:10:38.237Z,2.60
2018-09-18T15:13:04.828Z,2.60
2018-09-18T15:15:30.976Z,2.77
2018-09-18T15:17:57.030Z,2.80
2018-09-18T15:20:23.158Z,2.60
2018-09-18T15:22:49.271Z,2.90
2018-09-18T15:25:15.391Z,2.57
2018-09-18T15:27:42.749Z,2.87
2018-09-18T15:30:09.485Z,2.77
2018-09-18T15:32:35.647Z,4.17
2018-09-18T15:35:01.801Z,2.97
2018-09-18T15:37:28.037Z,3.00
2018-09-18T15:39:54.195Z,2.60
2018-09-18T15:42:20.373Z,2.93
2018-09-18T15:44:46.491Z,2.93
2018-09-18T15:47:12.603Z,3.33
2018-09-18T15:49:38.709Z,3.17
2018-09-18T15:52:04.917Z,3.30
2018-09-18T15:54:31.006Z,3.50
2018-09-18T15:56:57.641Z,3.23
2018-09-18T15:59:23.747Z,3.07
2018-09-18T16:01:49.850Z,3.30
2018-09-18T16:04:15.962Z,3.10
2018-09-18T16:06:42.068Z,3.10
2018-09-18T16:09:09.489Z,2.70
2018-09-18T16:11:35.648Z,3.00
2018-09-18T16:14:02.388Z,3.13
2018-09-18T16:16:28.516Z,3.13
2018-09-18T16:18:54.550Z,3.20
2018-09-18T16:21:20.649Z,3.23
2018-09-18T16:23:46.751Z,3.77
2018-09-18T16:26:12.890Z,3.20
2018-09-18T16:28:39.537Z,3.17
2018-09-18T16:31:06.163Z,3.13
2018-09-18T16:33:33.013Z,3.23
2018-09-18T16:35:59.147Z,3.20
2018-09-18T16:38:25.238Z,2.90
2018-09-18T16:40:51.371Z,3.00
2018-09-18T16:43:17.488Z,2.80
2018-09-18T16:45:43.736Z,3.40
2018-09-18T16:48:09.932Z,3.27
2018-09-18T16:50:36.006Z,2.97
2018-09-18T16:53:02.107Z,3.00
2018-09-18T16:55:28.309Z,3.10
2018-09-18T16:57:54.461Z,3.27
2018-09-18T17:00:20.705Z,3.50
2018-09-18T17:02:46.808Z,3.07
2018-09-18T17:05:12.950Z,3.30
2018-09-18T17:07:39.037Z,3.50
2018-09-18T17:10:05.231Z,4.07
2018-09-18T17:12:31.388Z,3.90
2018-09-18T17:14:58.046Z,3.90
2018-09-18T17:17:24.165Z,3.70
2018-09-18T17:19:50.771Z,3.60
2018-09-18T17:22:16.965Z,3.97
2018-09-18T17:24:43.609Z,4.17
2018-09-18T17:27:09.926Z,4.27
2018-09-18T17:29:36.020Z,3.80
2018-09-18T17:32:02.136Z,3.67
2018-09-18T17:34:28.313Z,2.97
2018-09-18T17:36:55.292Z,3.53
2018-09-18T17:39:21.382Z,3.70
2018-09-18T17:41:47.511Z,3.63
2018-09-18T17:44:14.315Z,3.80
2018-09-18T17:46:40.455Z,3.80
2018-09-18T17:49:06.533Z,3.80
2018-09-18T17:51:32.623Z,3.80
2018-09-18T17:53:58.811Z,4.27
2018-09-18T17:56:24.909Z,4.40
2018-09-18T17:58:51.575Z,4.03
2018-09-18T18:01:19.175Z,4.57
2018-09-18T18:03:45.302Z,4.70
2018-09-18T18:06:11.554Z,5.40
2018-09-18T18:08:37.716Z,6.87
2018-09-18T18:11:04.089Z,7.27
2018-09-18T18:13:30.284Z,5.87
2018-09-18T18:15:56.390Z,5.63
2018-09-18T18:18:22.720Z,5.43
2018-09-18T18:20:48.948Z,3.97
2018-09-18T18:23:15.155Z,3.57
2018-09-18T18:25:41.279Z,4.27
2018-09-18T18:28:07.476Z,4.50
2018-09-18T18:30:33.580Z,4.57
2018-09-18T18:32:59.814Z,3.80
2018-09-18T18:35:26.448Z,4.07
2018-09-18T18:37:52.555Z,4.63
2018-09-18T18:40:18.671Z,4.30
2018-09-18T18:42:45.482Z,4.53
2018-09-18T18:45:11.561Z,4.50
2018-09-18T18:47:37.696Z,4.40
2018-09-18T18:50:03.935Z,4.70
2018-09-18T18:52:32.271Z,4.67
2018-09-18T18:54:58.384Z,4.53
2018-09-18T18:57:24.508Z,5.23
2018-09-18T18:59:50.612Z,4.57
2018-09-18T19:02:17.785Z,5.27
2018-09-18T19:04:44.016Z,5.20
2018-09-18T19:07:10.186Z,4.63
2018-09-18T19:09:37.789Z,5.00
2018-09-18T19:12:04.042Z,5.20
2018-09-18T19:14:30.120Z,4.63
2018-09-18T19:16:56.235Z,5.47
2018-09-18T19:19:22.342Z,4.97
2018-09-18T19:21:48.446Z,5.37
2018-09-18T19:24:14.590Z,5.40
2018-09-18T19:26:40.750Z,5.67
2018-09-18T19:29:06.864Z,5.00
2018-09-18T19:31:33.004Z,5.30
2018-09-18T19:33:59.115Z,5.50
2018-09-18T19:36:26.112Z,5.13
2018-09-18T19:38:52.215Z,4.90
2018-09-18T19:41:18.326Z,4.70
2018-09-18T19:43:44.698Z,4.93
2018-09-18T19:46:10.783Z,5.10
2018-09-18T19:48:36.895Z,5.43
2018-09-18T19:51:03.172Z,5.10
2018-09-18T19:53:29.248Z,4.93
2018-09-18T19:55:55.348Z,5.17
2018-09-18T19:58:21.650Z,5.00
2018-09-18T20:00:47.808Z,4.67
2018-09-18T20:03:13.949Z,5.23
2018-09-18T20:05:40.079Z,4.30
2018-09-18T20:08:06.169Z,5.20
2018-09-18T20:10:32.277Z,5.00
2018-09-18T20:12:58.451Z,4.53
2018-09-18T20:15:25.138Z,4.57
2018-09-18T20:17:51.350Z,4.37
2018-09-18T20:20:17.638Z,4.97
2018-09-18T20:22:45.846Z,4.17
2018-09-18T20:25:12.135Z,4.53
2018-09-18T20:27:39.036Z,4.57
2018-09-18T20:30:06.354Z,3.83
2018-09-18T20:32:32.508Z,4.27
2018-09-18T20:34:59.758Z,4.33
2018-09-18T20:37:26.882Z,4.60
2018-09-18T20:39:54.170Z,4.40
2018-09-18T20:42:21.631Z,4.37
2018-09-18T20:44:48.077Z,4.37
2018-09-18T20:47:14.493Z,4.00
2018-09-18T20:49:41.013Z,4.10
2018-09-18T20:52:07.203Z,4.53
2018-09-18T20:54:33.302Z,4.97
2018-09-18T20:56:59.970Z,4.40
2018-09-18T20:59:26.104Z,3.93
2018-09-18T21:01:52.240Z,4.30
2018-09-18T21:04:18.312Z,4.30
2018-09-18T21:06:44.437Z,4.80
2018-09-18T21:09:10.534Z,4.60
2018-09-18T21:11:36.636Z,4.73
2018-09-18T21:14:02.697Z,4.70
2018-09-18T21:16:28.827Z,4.03
2018-09-18T21:18:54.907Z,4.60
2018-09-18T21:21:21.037Z,4.83
2018-09-18T21:23:47.176Z,5.20
2018-09-18T21:26:13.319Z,4.33
2018-09-18T21:28:39.399Z,3.70
2018-09-18T21:31:05.505Z,4.33
2018-09-18T21:33:31.620Z,4.10
2018-09-18T21:35:57.954Z,4.37
2018-09-18T21:38:24.040Z,3.63
2018-09-18T21:40:50.137Z,4.27
2018-09-18T21:43:16.236Z,4.93
2018-09-18T21:45:42.321Z,4.67
2018-09-18T21:48:08.404Z,4.20
2018-09-18T21:50:34.493Z,4.03
2018-09-18T21:53:00.589Z,3.73
2018-09-18T21:55:27.200Z,4.30
2018-09-18T21:57:54.103Z,4.27
2018-09-18T22:00:20.178Z,3.60
2018-09-18T22:02:46.258Z,3.97
2018-09-18T22:05:12.365Z,4.30
2018-09-18T22:07:38.487Z,3.97
2018-09-18T22:10:04.555Z,4.10
2018-09-18T22:12:30.753Z,4.27
2018-09-18T22:14:56.750Z,4.87
2018-09-18T22:17:22.843Z,4.37
2018-09-18T22:19:48.916Z,4.10
2018-09-18T22:22:15.048Z,4.80
2018-09-18T22:24:41.117Z,4.30
2018-09-18T22:27:07.187Z,4.17
2018-09-18T22:29:33.267Z,4.03
2018-09-18T22:31:59.345Z,3.63
2018-09-18T22:34:25.417Z,4.37
2018-09-18T22:36:51.533Z,4.37
2018-09-18T22:39:17.603Z,4.27
2018-09-18T22:41:43.734Z,4.10
2018-09-18T22:44:09.845Z,3.67
2018-09-18T22:46:35.972Z,4.10
2018-09-18T22:49:02.076Z,4.13
2018-09-18T22:51:28.176Z,4.30
2018-09-18T22:53:54.311Z,4.70
2018-09-18T22:56:20.457Z,3.83
2018-09-18T22:58:46.577Z,3.63
2018-09-18T23:01:12.688Z,4.10
2018-09-18T23:03:38.777Z,3.60
2018-09-18T23:06:05.037Z,3.90
2018-09-18T23:08:31.140Z,4.47
2018-09-18T23:10:57.210Z,3.60
2018-09-18T23:13:23.298Z,3.87
2018-09-18T23:15:49.371Z,3.57
2018-09-18T23:18:15.490Z,3.10
2018-09-18T23:20:41.576Z,3.13
2018-09-18T23:23:07.711Z,3.90
2018-09-18T23:25:33.866Z,3.57
2018-09-18T23:27:59.909Z,2.90
2018-09-18T23:30:25.983Z,3.43
2018-09-18T23:32:52.106Z,3.40
2018-09-18T23:35:18.166Z,3.00
2018-09-18T23:37:44.282Z,3.70
2018-09-18T23:40:11.330Z,3.70
2018-09-18T23:42:37.399Z,3.40
2018-09-18T23:45:03.503Z,3.60
2018-09-18T23:47:29.627Z,3.57
2018-09-18T23:49:55.710Z,3.20
2018-09-18T23:52:21.792Z,3.60
2018-09-18T23:54:47.884Z,3.37
2018-09-18T23:57:13.996Z,3.50
2018-09-18T23:59:40.084Z,3.40
